sensor_id;sensor_type;location;lat;lon;timestamp;P1;durP1;ratioP1;P2;durP2;ratioP2
55210;SDS011;41082;52.822;6.666;2022-08-19T00:01:46;5.43;;;3.53;;
55210;SDS011;41082;52.822;6.666;2022-08-19T00:04:14;4.30;;;3.90;;
55210;SDS011;41082;52.822;6.666;2022-08-19T00:06:42;3.28;;;2.97;;
55210;SDS011;41082;52.822;6.666;2022-08-19T00:09:10;3.63;;;3.30;;
55210;SDS011;41082;52.822;6.666;2022-08-19T00:11:38;4.57;;;3.22;;
55210;SDS011;41082;52.822;6.666;2022-08-19T00:14:04;3.63;;;3.33;;
55210;SDS011;41082;52.822;6.666;2022-08-19T00:16:31;5.30;;;4.80;;
55210;SDS011;41082;52.822;6.666;2022-08-19T00:18:57;5.22;;;4.30;;
55210;SDS011;41082;52.822;6.666;2022-08-19T00:21:23;5.28;;;4.28;;
55210;SDS011;41082;52.822;6.666;2022-08-19T00:23:51;5.60;;;4.43;;
55210;SDS011;41082;52.822;6.666;2022-08-19T00:26:18;5.88;;;4.93;;
55210;SDS011;41082;52.822;6.666;2022-08-19T00:28:44;7.07;;;5.32;;
55210;SDS011;41082;52.822;6.666;2022-08-19T00:31:10;6.00;;;5.50;;
55210;SDS011;41082;52.822;6.666;2022-08-19T00:33:35;6.20;;;5.60;;
55210;SDS011;41082;52.822;6.666;2022-08-19T00:36:03;5.95;;;5.45;;
55210;SDS011;41082;52.822;6.666;2022-08-19T00:38:31;5.80;;;4.93;;
55210;SDS011;41082;52.822;6.666;2022-08-19T00:40:57;5.55;;;5.05;;
55210;SDS011;41082;52.822;6.666;2022-08-19T00:43:24;5.20;;;4.80;;
55210;SDS011;41082;52.822;6.666;2022-08-19T00:45:51;5.68;;;5.18;;
55210;SDS011;41082;52.822;6.666;2022-08-19T00:48:17;4.00;;;3.70;;
55210;SDS011;41082;52.822;6.666;2022-08-19T00:50:43;5.15;;;3.35;;
55210;SDS011;41082;52.822;6.666;2022-08-19T00:53:14;3.05;;;2.80;;
55210;SDS011;41082;52.822;6.666;2022-08-19T00:55:44;2.35;;;2.15;;
55210;SDS011;41082;52.822;6.666;2022-08-19T00:58:13;2.25;;;1.98;;
55210;SDS011;41082;52.822;6.666;2022-08-19T01:00:40;4.43;;;3.10;;
55210;SDS011;41082;52.822;6.666;2022-08-19T01:03:07;3.78;;;1.88;;
55210;SDS011;41082;52.822;6.666;2022-08-19T01:05:36;2.40;;;1.70;;
55210;SDS011;41082;52.822;6.666;2022-08-19T01:08:03;3.38;;;2.13;;
55210;SDS011;41082;52.822;6.666;2022-08-19T01:10:32;1.95;;;1.52;;
55210;SDS011;41082;52.822;6.666;2022-08-19T01:13:02;1.88;;;1.58;;
55210;SDS011;41082;52.822;6.666;2022-08-19T01:15:30;2.55;;;2.30;;
55210;SDS011;41082;52.822;6.666;2022-08-19T01:18:05;2.80;;;1.80;;
55210;SDS011;41082;52.822;6.666;2022-08-19T01:20:33;2.50;;;2.25;;
55210;SDS011;41082;52.822;6.666;2022-08-19T01:22:59;2.10;;;1.60;;
55210;SDS011;41082;52.822;6.666;2022-08-19T01:25:38;2.67;;;1.60;;
55210;SDS011;41082;52.822;6.666;2022-08-19T01:28:08;2.30;;;2.10;;
55210;SDS011;41082;52.822;6.666;2022-08-19T01:30:51;2.90;;;2.60;;
55210;SDS011;41082;52.822;6.666;2022-08-19T01:33:17;3.50;;;2.72;;
55210;SDS011;41082;52.822;6.666;2022-08-19T01:35:44;3.67;;;2.92;;
55210;SDS011;41082;52.822;6.666;2022-08-19T01:38:19;4.10;;;3.40;;
55210;SDS011;41082;52.822;6.666;2022-08-19T01:40:50;3.70;;;3.30;;
55210;SDS011;41082;52.822;6.666;2022-08-19T01:43:16;3.45;;;3.15;;
55210;SDS011;41082;52.822;6.666;2022-08-19T01:45:44;4.55;;;4.00;;
55210;SDS011;41082;52.822;6.666;2022-08-19T01:48:10;4.57;;;4.18;;
55210;SDS011;41082;52.822;6.666;2022-08-19T01:50:36;7.25;;;4.65;;
55210;SDS011;41082;52.822;6.666;2022-08-19T01:53:04;4.22;;;3.92;;
55210;SDS011;41082;52.822;6.666;2022-08-19T01:55:32;4.93;;;4.53;;
55210;SDS011;41082;52.822;6.666;2022-08-19T01:58:01;5.32;;;3.70;;
55210;SDS011;41082;52.822;6.666;2022-08-19T02:00:30;3.85;;;2.75;;
55210;SDS011;41082;52.822;6.666;2022-08-19T02:02:57;2.78;;;2.47;;
55210;SDS011;41082;52.822;6.666;2022-08-19T02:05:23;2.45;;;2.25;;
55210;SDS011;41082;52.822;6.666;2022-08-19T02:07:49;3.80;;;2.95;;
55210;SDS011;41082;52.822;6.666;2022-08-19T02:10:17;5.25;;;2.72;;
55210;SDS011;41082;52.822;6.666;2022-08-19T02:12:45;4.20;;;3.13;;
55210;SDS011;41082;52.822;6.666;2022-08-19T02:15:11;8.77;;;3.03;;
55210;SDS011;41082;52.822;6.666;2022-08-19T02:17:37;4.13;;;2.13;;
55210;SDS011;41082;52.822;6.666;2022-08-19T02:20:03;2.22;;;1.05;;
55210;SDS011;41082;52.822;6.666;2022-08-19T02:22:30;1.20;;;1.08;;
55210;SDS011;41082;52.822;6.666;2022-08-19T02:24:55;3.03;;;2.00;;
55210;SDS011;41082;52.822;6.666;2022-08-19T02:27:22;2.38;;;1.95;;
55210;SDS011;41082;52.822;6.666;2022-08-19T02:29:48;3.40;;;2.30;;
55210;SDS011;41082;52.822;6.666;2022-08-19T02:32:15;2.30;;;2.10;;
55210;SDS011;41082;52.822;6.666;2022-08-19T02:34:41;2.13;;;1.40;;
55210;SDS011;41082;52.822;6.666;2022-08-19T02:37:07;1.00;;;0.57;;
55210;SDS011;41082;52.822;6.666;2022-08-19T02:39:53;0.90;;;0.50;;
55210;SDS011;41082;52.822;6.666;2022-08-19T02:42:19;1.20;;;0.45;;
55210;SDS011;41082;52.822;6.666;2022-08-19T02:44:44;1.55;;;0.70;;
55210;SDS011;41082;52.822;6.666;2022-08-19T02:47:10;0.70;;;0.50;;
55210;SDS011;41082;52.822;6.666;2022-08-19T02:49:35;1.30;;;0.63;;
55210;SDS011;41082;52.822;6.666;2022-08-19T02:52:02;1.60;;;1.00;;
55210;SDS011;41082;52.822;6.666;2022-08-19T02:54:28;2.00;;;1.80;;
55210;SDS011;41082;52.822;6.666;2022-08-19T02:56:53;3.35;;;1.67;;
55210;SDS011;41082;52.822;6.666;2022-08-19T02:59:19;2.42;;;0.90;;
55210;SDS011;41082;52.822;6.666;2022-08-19T03:01:45;1.30;;;0.85;;
55210;SDS011;41082;52.822;6.666;2022-08-19T03:04:15;2.17;;;0.90;;
55210;SDS011;41082;52.822;6.666;2022-08-19T03:06:42;0.90;;;0.63;;
55210;SDS011;41082;52.822;6.666;2022-08-19T03:09:08;1.95;;;0.98;;
55210;SDS011;41082;52.822;6.666;2022-08-19T03:11:35;1.70;;;1.20;;
55210;SDS011;41082;52.822;6.666;2022-08-19T03:14:01;1.42;;;0.90;;
55210;SDS011;41082;52.822;6.666;2022-08-19T03:16:29;1.25;;;0.93;;
55210;SDS011;41082;52.822;6.666;2022-08-19T03:18:56;1.02;;;0.77;;
55210;SDS011;41082;52.822;6.666;2022-08-19T03:21:25;1.73;;;1.00;;
55210;SDS011;41082;52.822;6.666;2022-08-19T03:23:56;1.42;;;0.50;;
55210;SDS011;41082;52.822;6.666;2022-08-19T03:26:22;1.75;;;0.60;;
55210;SDS011;41082;52.822;6.666;2022-08-19T03:28:49;0.88;;;0.40;;
55210;SDS011;41082;52.822;6.666;2022-08-19T03:31:15;1.10;;;0.30;;
55210;SDS011;41082;52.822;6.666;2022-08-19T03:33:49;1.05;;;0.45;;
55210;SDS011;41082;52.822;6.666;2022-08-19T03:36:17;1.95;;;0.60;;
55210;SDS011;41082;52.822;6.666;2022-08-19T03:38:46;2.58;;;0.40;;
55210;SDS011;41082;52.822;6.666;2022-08-19T03:41:16;1.25;;;0.40;;
55210;SDS011;41082;52.822;6.666;2022-08-19T03:43:46;2.35;;;1.08;;
55210;SDS011;41082;52.822;6.666;2022-08-19T03:46:14;0.73;;;0.40;;
55210;SDS011;41082;52.822;6.666;2022-08-19T03:48:43;0.88;;;0.77;;
55210;SDS011;41082;52.822;6.666;2022-08-19T03:51:16;2.55;;;0.98;;
55210;SDS011;41082;52.822;6.666;2022-08-19T03:53:46;1.05;;;0.70;;
55210;SDS011;41082;52.822;6.666;2022-08-19T03:56:13;0.95;;;0.60;;
55210;SDS011;41082;52.822;6.666;2022-08-19T03:58:40;0.93;;;0.60;;
55210;SDS011;41082;52.822;6.666;2022-08-19T04:01:10;1.10;;;0.35;;
55210;SDS011;41082;52.822;6.666;2022-08-19T04:03:37;1.00;;;0.70;;
55210;SDS011;41082;52.822;6.666;2022-08-19T04:06:22;1.48;;;0.68;;
55210;SDS011;41082;52.822;6.666;2022-08-19T04:08:50;1.73;;;0.82;;
55210;SDS011;41082;52.822;6.666;2022-08-19T04:11:24;2.70;;;0.87;;
55210;SDS011;41082;52.822;6.666;2022-08-19T04:13:52;2.17;;;0.80;;
55210;SDS011;41082;52.822;6.666;2022-08-19T04:16:19;3.83;;;0.80;;
55210;SDS011;41082;52.822;6.666;2022-08-19T04:18:46;1.60;;;0.60;;
55210;SDS011;41082;52.822;6.666;2022-08-19T04:21:21;2.05;;;0.82;;
55210;SDS011;41082;52.822;6.666;2022-08-19T04:23:49;2.10;;;1.20;;
55210;SDS011;41082;52.822;6.666;2022-08-19T04:26:15;1.90;;;1.00;;
55210;SDS011;41082;52.822;6.666;2022-08-19T04:28:44;2.15;;;1.20;;
55210;SDS011;41082;52.822;6.666;2022-08-19T04:31:14;2.50;;;1.20;;
55210;SDS011;41082;52.822;6.666;2022-08-19T04:33:41;2.03;;;1.00;;
55210;SDS011;41082;52.822;6.666;2022-08-19T04:36:07;1.95;;;0.80;;
55210;SDS011;41082;52.822;6.666;2022-08-19T04:38:35;2.50;;;0.95;;
55210;SDS011;41082;52.822;6.666;2022-08-19T04:41:02;0.88;;;0.50;;
55210;SDS011;41082;52.822;6.666;2022-08-19T04:43:46;0.85;;;0.47;;
55210;SDS011;41082;52.822;6.666;2022-08-19T04:46:15;1.20;;;0.60;;
55210;SDS011;41082;52.822;6.666;2022-08-19T04:48:41;1.73;;;1.00;;
55210;SDS011;41082;52.822;6.666;2022-08-19T04:51:09;2.08;;;0.65;;
55210;SDS011;41082;52.822;6.666;2022-08-19T04:53:37;1.23;;;0.98;;
55210;SDS011;41082;52.822;6.666;2022-08-19T04:56:06;1.65;;;0.70;;
55210;SDS011;41082;52.822;6.666;2022-08-19T04:58:34;1.60;;;0.68;;
55210;SDS011;41082;52.822;6.666;2022-08-19T05:01:01;1.67;;;1.00;;
55210;SDS011;41082;52.822;6.666;2022-08-19T05:03:28;2.50;;;1.25;;
55210;SDS011;41082;52.822;6.666;2022-08-19T05:05:59;2.92;;;1.40;;
55210;SDS011;41082;52.822;6.666;2022-08-19T05:08:32;2.78;;;1.23;;
55210;SDS011;41082;52.822;6.666;2022-08-19T05:10:58;2.35;;;1.13;;
55210;SDS011;41082;52.822;6.666;2022-08-19T05:13:24;1.48;;;1.25;;
55210;SDS011;41082;52.822;6.666;2022-08-19T05:15:57;2.67;;;1.80;;
55210;SDS011;41082;52.822;6.666;2022-08-19T05:18:24;2.55;;;1.27;;
55210;SDS011;41082;52.822;6.666;2022-08-19T05:21:09;3.72;;;2.33;;
55210;SDS011;41082;52.822;6.666;2022-08-19T05:23:55;3.20;;;2.75;;
55210;SDS011;41082;52.822;6.666;2022-08-19T05:26:20;3.78;;;2.53;;
55210;SDS011;41082;52.822;6.666;2022-08-19T05:28:46;4.25;;;2.33;;
55210;SDS011;41082;52.822;6.666;2022-08-19T05:31:12;4.20;;;3.30;;
55210;SDS011;41082;52.822;6.666;2022-08-19T05:33:37;3.42;;;2.70;;
55210;SDS011;41082;52.822;6.666;2022-08-19T05:36:04;3.42;;;2.72;;
55210;SDS011;41082;52.822;6.666;2022-08-19T05:38:32;4.53;;;3.33;;
55210;SDS011;41082;52.822;6.666;2022-08-19T05:40:59;6.28;;;3.72;;
55210;SDS011;41082;52.822;6.666;2022-08-19T05:43:24;3.50;;;3.15;;
55210;SDS011;41082;52.822;6.666;2022-08-19T05:45:50;2.55;;;1.83;;
55210;SDS011;41082;52.822;6.666;2022-08-19T05:48:16;2.65;;;1.05;;
55210;SDS011;41082;52.822;6.666;2022-08-19T05:50:45;2.30;;;1.55;;
55210;SDS011;41082;52.822;6.666;2022-08-19T05:53:11;3.38;;;2.83;;
55210;SDS011;41082;52.822;6.666;2022-08-19T05:55:41;3.83;;;3.33;;
55210;SDS011;41082;52.822;6.666;2022-08-19T05:58:06;3.92;;;3.53;;
55210;SDS011;41082;52.822;6.666;2022-08-19T06:00:32;9.75;;;5.57;;
55210;SDS011;41082;52.822;6.666;2022-08-19T06:02:58;10.65;;;5.90;;
55210;SDS011;41082;52.822;6.666;2022-08-19T06:05:28;7.13;;;5.45;;
55210;SDS011;41082;52.822;6.666;2022-08-19T06:07:54;12.70;;;8.05;;
55210;SDS011;41082;52.822;6.666;2022-08-19T06:10:21;9.43;;;7.43;;
55210;SDS011;41082;52.822;6.666;2022-08-19T06:12:47;7.85;;;6.97;;
55210;SDS011;41082;52.822;6.666;2022-08-19T06:15:13;11.35;;;7.43;;
55210;SDS011;41082;52.822;6.666;2022-08-19T06:17:39;13.85;;;10.05;;
55210;SDS011;41082;52.822;6.666;2022-08-19T06:20:07;10.77;;;8.50;;
55210;SDS011;41082;52.822;6.666;2022-08-19T06:22:40;13.40;;;9.73;;
55210;SDS011;41082;52.822;6.666;2022-08-19T06:25:07;19.65;;;12.27;;
55210;SDS011;41082;52.822;6.666;2022-08-19T06:27:34;14.07;;;10.88;;
55210;SDS011;41082;52.822;6.666;2022-08-19T06:30:02;20.35;;;12.32;;
55210;SDS011;41082;52.822;6.666;2022-08-19T06:32:29;17.50;;;13.70;;
55210;SDS011;41082;52.822;6.666;2022-08-19T06:34:55;15.48;;;13.88;;
55210;SDS011;41082;52.822;6.666;2022-08-19T06:37:20;13.98;;;12.55;;
55210;SDS011;41082;52.822;6.666;2022-08-19T06:39:47;15.70;;;13.50;;
55210;SDS011;41082;52.822;6.666;2022-08-19T06:42:13;20.70;;;14.65;;
55210;SDS011;41082;52.822;6.666;2022-08-19T06:44:41;21.55;;;16.08;;
55210;SDS011;41082;52.822;6.666;2022-08-19T06:47:09;16.90;;;13.68;;
55210;SDS011;41082;52.822;6.666;2022-08-19T06:49:36;18.45;;;15.90;;
55210;SDS011;41082;52.822;6.666;2022-08-19T06:52:02;18.73;;;13.27;;
55210;SDS011;41082;52.822;6.666;2022-08-19T06:54:29;22.10;;;15.15;;
55210;SDS011;41082;52.822;6.666;2022-08-19T06:56:55;16.77;;;13.82;;
55210;SDS011;41082;52.822;6.666;2022-08-19T06:59:23;20.85;;;15.18;;
55210;SDS011;41082;52.822;6.666;2022-08-19T07:01:54;20.00;;;15.27;;
55210;SDS011;41082;52.822;6.666;2022-08-19T07:04:22;19.48;;;16.00;;
55210;SDS011;41082;52.822;6.666;2022-08-19T07:06:49;16.27;;;13.73;;
55210;SDS011;41082;52.822;6.666;2022-08-19T07:09:17;19.23;;;14.32;;
55210;SDS011;41082;52.822;6.666;2022-08-19T07:11:46;17.50;;;14.10;;
55210;SDS011;41082;52.822;6.666;2022-08-19T07:14:14;16.60;;;14.80;;
55210;SDS011;41082;52.822;6.666;2022-08-19T07:16:43;18.95;;;15.02;;
55210;SDS011;41082;52.822;6.666;2022-08-19T07:19:10;18.80;;;15.68;;
55210;SDS011;41082;52.822;6.666;2022-08-19T07:21:37;20.58;;;15.02;;
55210;SDS011;41082;52.822;6.666;2022-08-19T07:24:03;17.98;;;14.88;;
55210;SDS011;41082;52.822;6.666;2022-08-19T07:26:30;17.52;;;15.13;;
55210;SDS011;41082;52.822;6.666;2022-08-19T07:28:57;18.77;;;15.10;;
55210;SDS011;41082;52.822;6.666;2022-08-19T07:31:26;16.67;;;14.88;;
55210;SDS011;41082;52.822;6.666;2022-08-19T07:33:53;19.15;;;16.15;;
55210;SDS011;41082;52.822;6.666;2022-08-19T07:36:27;16.08;;;14.35;;
55210;SDS011;41082;52.822;6.666;2022-08-19T07:38:56;16.80;;;14.73;;
55210;SDS011;41082;52.822;6.666;2022-08-19T07:41:23;16.17;;;14.48;;
55210;SDS011;41082;52.822;6.666;2022-08-19T07:43:51;17.45;;;14.52;;
55210;SDS011;41082;52.822;6.666;2022-08-19T07:46:17;17.77;;;14.68;;
55210;SDS011;41082;52.822;6.666;2022-08-19T07:48:45;18.85;;;14.65;;
55210;SDS011;41082;52.822;6.666;2022-08-19T07:51:13;16.08;;;13.40;;
55210;SDS011;41082;52.822;6.666;2022-08-19T07:53:41;16.05;;;14.13;;
55210;SDS011;41082;52.822;6.666;2022-08-19T07:56:08;16.40;;;14.30;;
55210;SDS011;41082;52.822;6.666;2022-08-19T07:58:37;15.10;;;13.50;;
55210;SDS011;41082;52.822;6.666;2022-08-19T08:01:08;15.63;;;13.93;;
55210;SDS011;41082;52.822;6.666;2022-08-19T08:03:36;17.70;;;13.40;;
55210;SDS011;41082;52.822;6.666;2022-08-19T08:06:22;14.57;;;12.10;;
55210;SDS011;41082;52.822;6.666;2022-08-19T08:09:07;13.63;;;11.65;;
55210;SDS011;41082;52.822;6.666;2022-08-19T08:11:40;15.27;;;12.07;;
55210;SDS011;41082;52.822;6.666;2022-08-19T08:14:14;12.88;;;10.60;;
55210;SDS011;41082;52.822;6.666;2022-08-19T08:16:47;11.70;;;10.40;;
55210;SDS011;41082;52.822;6.666;2022-08-19T08:19:15;11.52;;;10.05;;
55210;SDS011;41082;52.822;6.666;2022-08-19T08:21:41;13.02;;;11.15;;
55210;SDS011;41082;52.822;6.666;2022-08-19T08:24:07;12.05;;;10.52;;
55210;SDS011;41082;52.822;6.666;2022-08-19T08:26:33;11.15;;;10.02;;
55210;SDS011;41082;52.822;6.666;2022-08-19T08:28:59;11.73;;;10.52;;
55210;SDS011;41082;52.822;6.666;2022-08-19T08:31:24;12.23;;;10.90;;
55210;SDS011;41082;52.822;6.666;2022-08-19T08:33:50;14.05;;;12.65;;
55210;SDS011;41082;52.822;6.666;2022-08-19T08:36:15;14.70;;;12.70;;
55210;SDS011;41082;52.822;6.666;2022-08-19T08:38:42;14.10;;;12.70;;
55210;SDS011;41082;52.822;6.666;2022-08-19T08:41:14;13.85;;;11.00;;
55210;SDS011;41082;52.822;6.666;2022-08-19T08:43:48;13.13;;;10.70;;
55210;SDS011;41082;52.822;6.666;2022-08-19T08:46:18;11.35;;;10.25;;
55210;SDS011;41082;52.822;6.666;2022-08-19T08:49:36;12.18;;;10.30;;
55210;SDS011;41082;52.822;6.666;2022-08-19T08:54:41;11.65;;;9.98;;
55210;SDS011;41082;52.822;6.666;2022-08-19T08:57:29;9.90;;;8.60;;
55210;SDS011;41082;52.822;6.666;2022-08-19T09:00:15;10.75;;;9.20;;
55210;SDS011;41082;52.822;6.666;2022-08-19T09:02:50;10.68;;;8.15;;
55210;SDS011;41082;52.822;6.666;2022-08-19T09:05:15;8.77;;;7.88;;
55210;SDS011;41082;52.822;6.666;2022-08-19T09:07:58;9.77;;;8.80;;
55210;SDS011;41082;52.822;6.666;2022-08-19T09:10:34;11.05;;;8.63;;
55210;SDS011;41082;52.822;6.666;2022-08-19T09:16:08;15.02;;;8.05;;
55210;SDS011;41082;52.822;6.666;2022-08-19T09:21:08;9.27;;;8.38;;
55210;SDS011;41082;52.822;6.666;2022-08-19T09:23:35;12.82;;;10.30;;
55210;SDS011;41082;52.822;6.666;2022-08-19T09:26:06;13.18;;;11.02;;
55210;SDS011;41082;52.822;6.666;2022-08-19T09:28:32;12.45;;;10.40;;
55210;SDS011;41082;52.822;6.666;2022-08-19T09:30:58;13.10;;;11.90;;
55210;SDS011;41082;52.822;6.666;2022-08-19T09:33:24;13.15;;;11.60;;
55210;SDS011;41082;52.822;6.666;2022-08-19T09:35:49;11.85;;;10.63;;
55210;SDS011;41082;52.822;6.666;2022-08-19T09:38:15;11.55;;;9.93;;
55210;SDS011;41082;52.822;6.666;2022-08-19T09:40:41;12.43;;;11.20;;
55210;SDS011;41082;52.822;6.666;2022-08-19T09:43:06;13.25;;;11.95;;
55210;SDS011;41082;52.822;6.666;2022-08-19T09:45:32;12.68;;;11.45;;
55210;SDS011;41082;52.822;6.666;2022-08-19T09:47:58;15.43;;;12.10;;
55210;SDS011;41082;52.822;6.666;2022-08-19T09:50:24;12.27;;;11.07;;
55210;SDS011;41082;52.822;6.666;2022-08-19T09:52:49;11.98;;;10.88;;
55210;SDS011;41082;52.822;6.666;2022-08-19T09:55:17;13.43;;;11.57;;
55210;SDS011;41082;52.822;6.666;2022-08-19T09:57:43;11.30;;;10.00;;
55210;SDS011;41082;52.822;6.666;2022-08-19T10:00:08;11.00;;;9.38;;
55210;SDS011;41082;52.822;6.666;2022-08-19T10:02:35;11.00;;;9.77;;
55210;SDS011;41082;52.822;6.666;2022-08-19T10:05:01;10.65;;;9.52;;
55210;SDS011;41082;52.822;6.666;2022-08-19T10:07:45;13.70;;;12.32;;
55210;SDS011;41082;52.822;6.666;2022-08-19T10:10:11;12.23;;;11.00;;
55210;SDS011;41082;52.822;6.666;2022-08-19T10:12:37;9.07;;;8.27;;
55210;SDS011;41082;52.822;6.666;2022-08-19T10:15:03;9.73;;;8.82;;
55210;SDS011;41082;52.822;6.666;2022-08-19T10:17:31;9.77;;;8.30;;
55210;SDS011;41082;52.822;6.666;2022-08-19T10:19:58;9.73;;;8.77;;
55210;SDS011;41082;52.822;6.666;2022-08-19T10:22:24;9.93;;;8.90;;
55210;SDS011;41082;52.822;6.666;2022-08-19T10:24:50;9.32;;;8.43;;
55210;SDS011;41082;52.822;6.666;2022-08-19T10:27:17;9.50;;;8.60;;
55210;SDS011;41082;52.822;6.666;2022-08-19T10:29:42;11.35;;;8.20;;
55210;SDS011;41082;52.822;6.666;2022-08-19T10:32:08;8.60;;;7.03;;
55210;SDS011;41082;52.822;6.666;2022-08-19T10:34:35;8.65;;;6.88;;
55210;SDS011;41082;52.822;6.666;2022-08-19T10:37:03;8.02;;;7.22;;
55210;SDS011;41082;52.822;6.666;2022-08-19T10:39:33;7.25;;;6.50;;
55210;SDS011;41082;52.822;6.666;2022-08-19T10:42:04;7.95;;;7.25;;
55210;SDS011;41082;52.822;6.666;2022-08-19T10:44:32;8.77;;;6.90;;
55210;SDS011;41082;52.822;6.666;2022-08-19T10:47:00;7.32;;;6.63;;
55210;SDS011;41082;52.822;6.666;2022-08-19T10:49:26;8.18;;;7.38;;
55210;SDS011;41082;52.822;6.666;2022-08-19T10:51:52;7.82;;;7.03;;
55210;SDS011;41082;52.822;6.666;2022-08-19T10:54:36;8.65;;;6.65;;
55210;SDS011;41082;52.822;6.666;2022-08-19T10:57:21;8.48;;;7.57;;
55210;SDS011;41082;52.822;6.666;2022-08-19T10:59:49;9.43;;;6.93;;
55210;SDS011;41082;52.822;6.666;2022-08-19T11:02:14;6.78;;;6.13;;
55210;SDS011;41082;52.822;6.666;2022-08-19T11:04:40;6.82;;;5.47;;
55210;SDS011;41082;52.822;6.666;2022-08-19T11:07:06;7.22;;;6.53;;
55210;SDS011;41082;52.822;6.666;2022-08-19T11:09:37;6.45;;;5.93;;
55210;SDS011;41082;52.822;6.666;2022-08-19T11:12:05;9.80;;;8.73;;
55210;SDS011;41082;52.822;6.666;2022-08-19T11:14:31;7.50;;;6.65;;
55210;SDS011;41082;52.822;6.666;2022-08-19T11:16:58;7.00;;;5.45;;
55210;SDS011;41082;52.822;6.666;2022-08-19T11:19:24;6.93;;;5.50;;
55210;SDS011;41082;52.822;6.666;2022-08-19T11:21:50;10.68;;;8.15;;
55210;SDS011;41082;52.822;6.666;2022-08-19T11:24:21;6.75;;;6.05;;
55210;SDS011;41082;52.822;6.666;2022-08-19T11:26:49;6.90;;;6.00;;
55210;SDS011;41082;52.822;6.666;2022-08-19T11:29:17;8.63;;;7.20;;
55210;SDS011;41082;52.822;6.666;2022-08-19T11:31:45;7.45;;;6.15;;
55210;SDS011;41082;52.822;6.666;2022-08-19T11:34:14;7.47;;;6.75;;
55210;SDS011;41082;52.822;6.666;2022-08-19T11:36:42;6.55;;;5.97;;
55210;SDS011;41082;52.822;6.666;2022-08-19T11:39:10;6.63;;;6.00;;
55210;SDS011;41082;52.822;6.666;2022-08-19T11:41:39;7.78;;;6.97;;
55210;SDS011;41082;52.822;6.666;2022-08-19T11:44:05;6.88;;;6.20;;
55210;SDS011;41082;52.822;6.666;2022-08-19T11:46:33;7.00;;;6.35;;
55210;SDS011;41082;52.822;6.666;2022-08-19T11:49:00;8.35;;;7.55;;
55210;SDS011;41082;52.822;6.666;2022-08-19T11:51:28;8.77;;;7.40;;
55210;SDS011;41082;52.822;6.666;2022-08-19T11:53:55;7.50;;;6.80;;
55210;SDS011;41082;52.822;6.666;2022-08-19T11:56:23;6.93;;;6.32;;
55210;SDS011;41082;52.822;6.666;2022-08-19T11:58:50;6.45;;;5.47;;
55210;SDS011;41082;52.822;6.666;2022-08-19T12:01:18;6.15;;;4.85;;
55210;SDS011;41082;52.822;6.666;2022-08-19T12:03:45;7.78;;;4.95;;
55210;SDS011;41082;52.822;6.666;2022-08-19T12:06:13;7.53;;;6.82;;
55210;SDS011;41082;52.822;6.666;2022-08-19T12:08:41;6.35;;;5.75;;
55210;SDS011;41082;52.822;6.666;2022-08-19T12:11:08;5.47;;;4.80;;
55210;SDS011;41082;52.822;6.666;2022-08-19T12:13:35;7.60;;;6.90;;
55210;SDS011;41082;52.822;6.666;2022-08-19T12:16:06;6.32;;;5.50;;
55210;SDS011;41082;52.822;6.666;2022-08-19T12:18:35;6.97;;;4.93;;
55210;SDS011;41082;52.822;6.666;2022-08-19T12:21:01;6.03;;;4.68;;
55210;SDS011;41082;52.822;6.666;2022-08-19T12:23:26;8.93;;;4.85;;
55210;SDS011;41082;52.822;6.666;2022-08-19T12:25:52;8.35;;;4.55;;
55210;SDS011;41082;52.822;6.666;2022-08-19T12:28:19;5.40;;;4.25;;
55210;SDS011;41082;52.822;6.666;2022-08-19T12:30:47;6.32;;;5.63;;
55210;SDS011;41082;52.822;6.666;2022-08-19T12:33:15;6.38;;;4.32;;
55210;SDS011;41082;52.822;6.666;2022-08-19T12:35:42;4.28;;;3.88;;
55210;SDS011;41082;52.822;6.666;2022-08-19T12:38:09;6.40;;;3.83;;
55210;SDS011;41082;52.822;6.666;2022-08-19T12:40:35;5.50;;;4.32;;
55210;SDS011;41082;52.822;6.666;2022-08-19T12:43:01;6.45;;;5.85;;
55210;SDS011;41082;52.822;6.666;2022-08-19T12:45:27;6.63;;;5.97;;
55210;SDS011;41082;52.822;6.666;2022-08-19T12:47:53;6.25;;;5.68;;
55210;SDS011;41082;52.822;6.666;2022-08-19T12:50:19;6.65;;;4.38;;
55210;SDS011;41082;52.822;6.666;2022-08-19T12:52:46;4.13;;;3.72;;
55210;SDS011;41082;52.822;6.666;2022-08-19T12:55:13;4.97;;;4.13;;
55210;SDS011;41082;52.822;6.666;2022-08-19T12:57:39;4.95;;;3.90;;
55210;SDS011;41082;52.822;6.666;2022-08-19T13:02:42;4.50;;;4.10;;
55210;SDS011;41082;52.822;6.666;2022-08-19T13:05:12;6.88;;;5.15;;
55210;SDS011;41082;52.822;6.666;2022-08-19T13:07:40;3.33;;;2.20;;
55210;SDS011;41082;52.822;6.666;2022-08-19T13:10:09;3.22;;;2.42;;
55210;SDS011;41082;52.822;6.666;2022-08-19T13:12:37;3.90;;;3.13;;
55210;SDS011;41082;52.822;6.666;2022-08-19T13:15:04;4.10;;;2.80;;
55210;SDS011;41082;52.822;6.666;2022-08-19T13:17:30;4.75;;;2.65;;
55210;SDS011;41082;52.822;6.666;2022-08-19T13:19:58;5.72;;;2.70;;
55210;SDS011;41082;52.822;6.666;2022-08-19T13:22:23;3.88;;;3.00;;
55210;SDS011;41082;52.822;6.666;2022-08-19T13:24:49;4.75;;;2.30;;
55210;SDS011;41082;52.822;6.666;2022-08-19T13:27:15;3.17;;;2.28;;
55210;SDS011;41082;52.822;6.666;2022-08-19T13:29:41;3.13;;;2.90;;
55210;SDS011;41082;52.822;6.666;2022-08-19T13:32:25;3.28;;;2.58;;
55210;SDS011;41082;52.822;6.666;2022-08-19T13:35:10;5.07;;;2.50;;
55210;SDS011;41082;52.822;6.666;2022-08-19T13:37:36;3.15;;;2.75;;
55210;SDS011;41082;52.822;6.666;2022-08-19T13:42:39;2.95;;;2.60;;
55210;SDS011;41082;52.822;6.666;2022-08-19T13:45:06;3.22;;;3.00;;
55210;SDS011;41082;52.822;6.666;2022-08-19T13:47:33;5.80;;;2.75;;
55210;SDS011;41082;52.822;6.666;2022-08-19T13:50:07;5.63;;;3.90;;
55210;SDS011;41082;52.822;6.666;2022-08-19T13:52:37;3.63;;;3.33;;
55210;SDS011;41082;52.822;6.666;2022-08-19T13:55:04;4.85;;;3.67;;
55210;SDS011;41082;52.822;6.666;2022-08-19T13:57:31;8.05;;;4.85;;
55210;SDS011;41082;52.822;6.666;2022-08-19T13:59:59;7.35;;;5.47;;
55210;SDS011;41082;52.822;6.666;2022-08-19T14:02:25;4.70;;;4.10;;
55210;SDS011;41082;52.822;6.666;2022-08-19T14:04:51;6.60;;;4.57;;
55210;SDS011;41082;52.822;6.666;2022-08-19T14:07:17;3.78;;;3.40;;
55210;SDS011;41082;52.822;6.666;2022-08-19T14:09:43;3.03;;;2.80;;
55210;SDS011;41082;52.822;6.666;2022-08-19T14:12:09;3.83;;;3.42;;
55210;SDS011;41082;52.822;6.666;2022-08-19T14:14:38;4.35;;;3.95;;
55210;SDS011;41082;52.822;6.666;2022-08-19T14:17:07;6.50;;;5.85;;
55210;SDS011;41082;52.822;6.666;2022-08-19T14:19:33;7.40;;;6.07;;
55210;SDS011;41082;52.822;6.666;2022-08-19T14:21:59;8.63;;;7.30;;
55210;SDS011;41082;52.822;6.666;2022-08-19T14:24:25;6.88;;;6.18;;
55210;SDS011;41082;52.822;6.666;2022-08-19T14:26:50;8.00;;;7.30;;
55210;SDS011;41082;52.822;6.666;2022-08-19T14:29:16;7.10;;;6.07;;
55210;SDS011;41082;52.822;6.666;2022-08-19T14:31:42;10.35;;;8.32;;
55210;SDS011;41082;52.822;6.666;2022-08-19T14:34:09;9.98;;;8.05;;
55210;SDS011;41082;52.822;6.666;2022-08-19T14:36:35;14.10;;;10.90;;
55210;SDS011;41082;52.822;6.666;2022-08-19T14:39:02;15.02;;;11.30;;
55210;SDS011;41082;52.822;6.666;2022-08-19T14:41:28;13.48;;;12.05;;
55210;SDS011;41082;52.822;6.666;2022-08-19T14:43:55;16.30;;;14.55;;
55210;SDS011;41082;52.822;6.666;2022-08-19T14:46:25;19.30;;;15.30;;
55210;SDS011;41082;52.822;6.666;2022-08-19T14:48:52;18.20;;;13.75;;
55210;SDS011;41082;52.822;6.666;2022-08-19T14:51:19;14.13;;;11.30;;
55210;SDS011;41082;52.822;6.666;2022-08-19T14:53:49;14.40;;;11.40;;
55210;SDS011;41082;52.822;6.666;2022-08-19T14:56:16;11.70;;;10.25;;
55210;SDS011;41082;52.822;6.666;2022-08-19T14:58:46;13.25;;;9.90;;
55210;SDS011;41082;52.822;6.666;2022-08-19T15:01:16;12.82;;;10.48;;